Kelvedon Hatch, United Kingdom
Current Conditions -  °F | °C
As of 6:50 PM on Friday 21 Nov 2014 (Local Time) from EGSS Reporting Station
Light Rain Light Rain  
Wind Chill: 41°   Ceiling: 500
Heat Index: 46°   Visibility: 1.6mi
Dew Point: 46°   Wind: 10mph
Humidity: 100%   Direction: 150°SSE
Pressure: 29.97"   Gusts: NA
Location:  51.67°N, 0.27°E
Report Text: EGSS 211850Z 15009KT 2600 -RA BKN005 08/08 Q1015
Loading
Personal Weather Stations






























Interactive Weather Map New forecast layout! Learn more

10-Day Weather Forecast

Advertisements
Track Severe Weather on mobile